Time;durP1;ratioP1;P1;durP2;ratioP2;P2;SDS_P1;SDS_P2;PMS_P1;PMS_P2;Temp;Humidity;BMP_temperature;BMP_pressure;BME280_temperature;BME280_humidity;BME280_pressure;Samples;Min_cycle;Max_cycle;Signal;HPM_P1;HPM_P2
2022/05/17 00:01:57;;;;;;;6.12;1.17;;;;;;;11.11;51.93;100785.77;1722036;82;20984;-42
2022/05/17 00:04:24;;;;;;;1.50;0.95;;;;;;;11.10;52.69;100788.36;1749865;82;21418;-42
2022/05/17 00:06:51;;;;;;;11.90;1.17;;;;;;;11.06;52.41;100787.12;1749880;80;21335;-42
2022/05/17 00:09:17;;;;;;;9.28;1.30;;;;;;;11.05;52.90;100792.34;1749920;82;21031;-42
2022/05/17 00:11:45;;;;;;;8.73;1.00;;;;;;;11.02;52.28;100789.80;1749884;82;20952;-43
2022/05/17 00:14:13;;;;;;;6.92;1.70;;;;;;;11.00;51.93;100786.37;1750000;82;20940;-43
2022/05/17 00:16:41;;;;;;;5.30;1.55;;;;;;;10.95;51.54;100786.86;1749965;82;20955;-43
2022/05/17 00:19:09;;;;;;;3.35;1.32;;;;;;;10.91;51.70;100789.50;1750080;82;20845;-43
2022/05/17 00:21:36;;;;;;;9.23;1.10;;;;;;;10.87;52.66;100785.25;1749982;82;21168;-42
2022/05/17 00:24:04;;;;;;;3.47;1.22;;;;;;;10.83;53.86;100786.17;1749915;82;20904;-43
2022/05/17 00:26:34;;;;;;;3.37;1.00;;;;;;;10.75;54.59;100778.96;1750172;82;20956;-42
2022/05/17 00:29:02;;;;;;;4.03;1.00;;;;;;;10.67;56.60;100779.48;1749925;82;20881;-43
2022/05/17 00:31:29;;;;;;;4.40;1.20;;;;;;;10.59;57.08;100776.57;1750069;82;20862;-43
2022/05/17 00:33:57;;;;;;;9.60;0.90;;;;;;;10.53;56.99;100775.36;1750051;81;21995;-43
2022/05/17 00:36:24;;;;;;;8.85;1.07;;;;;;;10.43;56.88;100769.88;1749917;82;20861;-43
2022/05/17 00:38:52;;;;;;;3.55;1.22;;;;;;;10.36;56.37;100765.20;1749810;82;20964;-43
2022/05/17 00:41:18;;;;;;;4.45;0.80;;;;;;;10.30;56.94;100772.59;1723858;81;20936;-43
2022/05/17 00:47:20;;;;;;;5.17;1.20;;;;;;;10.21;59.95;100768.80;1757760;81;21265;-43
2022/05/17 00:50:05;;;;;;;3.80;1.00;;;;;;;10.10;61.28;100767.64;1757665;81;20999;-43
2022/05/17 00:52:46;;;;;;;9.98;1.30;;;;;;;9.96;61.49;100772.96;1757589;81;21019;-42
2022/05/17 00:55:27;;;;;;;7.40;1.15;;;;;;;9.86;62.25;100771.36;1757642;81;20939;-42
2022/05/17 00:58:13;;;;;;;2.85;1.02;;;;;;;9.78;64.07;100772.30;1757744;81;20991;-42
2022/05/17 01:00:51;;;;;;;8.25;1.27;;;;;;;9.71;65.94;100774.51;1757748;81;21281;-42
2022/05/17 01:03:18;;;;;;;3.20;0.93;;;;;;;9.61;66.70;100770.31;1729819;81;21532;-43
2022/05/17 01:05:46;;;;;;;9.18;1.22;;;;;;;9.49;66.15;100768.27;1757706;81;21042;-42
2022/05/17 01:08:14;;;;;;;3.30;1.12;;;;;;;9.41;64.73;100770.50;1757594;81;20956;-42
2022/05/17 01:10:41;;;;;;;2.58;1.32;;;;;;;9.36;63.62;100773.56;1757674;81;21453;-43
2022/05/17 01:15:54;;;;;;;9.88;1.47;;;;;;;9.24;65.01;100770.64;1757576;81;21014;-42
2022/05/17 01:18:21;;;;;;;6.87;1.40;;;;;;;9.16;64.33;100765.53;1757715;81;20928;-42
2022/05/17 01:20:48;;;;;;;5.53;1.07;;;;;;;9.12;64.02;100762.10;1757559;81;21359;-42
2022/05/17 01:23:15;;;;;;;6.40;0.93;;;;;;;9.09;63.94;100762.13;1757759;81;20960;-42
2022/05/17 01:25:41;;;;;;;4.80;1.17;;;;;;;9.05;63.99;100761.28;1757629;81;21132;-43
2022/05/17 01:28:17;;;;;;;2.60;1.20;;;;;;;8.97;64.32;100762.20;1757703;81;21470;-42
2022/05/17 01:30:44;;;;;;;6.08;1.20;;;;;;;8.88;64.21;100763.14;1757645;81;20971;-42
2022/05/17 01:33:16;;;;;;;10.95;1.25;;;;;;;8.80;65.40;100762.31;1757730;81;21435;-42
2022/05/17 01:35:44;;;;;;;2.40;1.20;;;;;;;8.68;65.94;100767.98;1757870;81;20932;-42
2022/05/17 01:38:11;;;;;;;6.72;1.90;;;;;;;8.56;67.55;100764.16;1757577;81;22117;-42
2022/05/17 01:40:38;;;;;;;6.62;1.40;;;;;;;8.46;69.80;100761.61;1729681;81;20880;-42
2022/05/17 01:43:05;;;;;;;14.75;1.50;;;;;;;8.39;71.05;100761.64;1751552;81;20971;-41
2022/05/17 01:45:32;;;;;;;8.65;1.15;;;;;;;8.30;71.79;100764.69;1749880;82;20968;-42
2022/05/17 01:47:59;;;;;;;4.90;1.25;;;;;;;8.24;72.59;100759.98;1749852;82;20877;-41
2022/05/17 01:50:26;;;;;;;9.58;1.35;;;;;;;8.18;72.18;100764.72;1749702;81;21076;-42
2022/05/17 01:52:52;;;;;;;6.08;0.78;;;;;;;8.11;72.37;100763.91;1749756;82;20912;-41
2022/05/17 01:57:31;;;;;;;3.52;1.00;;;;;;;8.03;72.76;100766.50;1798412;79;22642;-41
2022/05/17 01:59:58;;;;;;;5.08;1.15;;;;;;;7.95;72.92;100764.36;1758016;81;20881;-42
2022/05/17 02:02:25;;;;;;;6.53;1.50;;;;;;;7.90;73.46;100755.78;1758057;81;21024;-42
2022/05/17 02:04:51;;;;;;;3.98;1.50;;;;;;;7.83;74.45;100757.96;1758153;81;21424;-42
2022/05/17 02:07:18;;;;;;;7.45;1.47;;;;;;;7.73;75.66;100757.98;1758239;81;20936;-42
2022/05/17 02:09:47;;;;;;;14.40;1.45;;;;;;;7.65;76.55;100767.43;1758153;81;20971;-42
2022/05/17 02:12:15;;;;;;;11.15;1.40;;;;;;;7.56;77.60;100768.30;1758099;81;21495;-42
2022/05/17 02:14:42;;;;;;;5.17;1.40;;;;;;;7.51;78.08;100770.02;1758156;81;21146;-42
2022/05/17 02:17:09;;;;;;;3.62;1.20;;;;;;;7.46;78.31;100766.59;1757839;81;22255;-42
2022/05/17 02:19:35;;;;;;;8.73;1.20;;;;;;;7.38;78.38;100767.88;1758004;81;21518;-42
2022/05/17 02:22:04;;;;;;;2.10;1.10;;;;;;;7.33;78.37;100772.18;1758039;81;20975;-42
2022/05/17 02:24:31;;;;;;;3.42;1.27;;;;;;;7.30;78.79;100766.59;1758135;81;20901;-42
2022/05/17 02:26:58;;;;;;;12.28;1.42;;;;;;;7.26;79.06;100766.61;1758054;81;21152;-41
2022/05/17 02:29:26;;;;;;;7.42;1.50;;;;;;;7.22;79.52;100767.47;1758019;81;20885;-42
2022/05/17 02:31:53;;;;;;;7.53;1.47;;;;;;;7.15;79.57;100764.02;1743043;81;21086;-42
2022/05/17 02:34:19;;;;;;;5.67;1.52;;;;;;;7.08;79.83;100763.16;1758138;81;20975;-42
2022/05/17 02:36:48;;;;;;;1.45;0.98;;;;;;;7.02;80.14;100765.73;1696380;83;21497;-42
2022/05/17 02:39:16;;;;;;;4.90;1.10;;;;;;;6.98;81.02;100764.02;1724565;83;21008;-41
2022/05/17 02:41:43;;;;;;;3.85;1.17;;;;;;;6.95;81.67;100766.59;1724793;83;21516;-42
2022/05/17 02:44:11;;;;;;;17.23;1.42;;;;;;;6.94;82.56;100766.13;1705520;83;20925;-42
2022/05/17 02:46:39;;;;;;;18.57;1.32;;;;;;;6.94;83.44;100759.69;1698666;84;20929;-41
2022/05/17 02:49:07;;;;;;;2.45;0.98;;;;;;;6.93;84.58;100763.13;1670483;84;21026;-42
2022/05/17 02:51:36;;;;;;;4.97;1.00;;;;;;;6.95;85.89;100765.30;1698527;84;21170;-42
2022/05/17 02:54:05;;;;;;;3.62;0.98;;;;;;;6.98;87.14;100762.73;1698443;84;20963;-42
2022/05/17 02:56:33;;;;;;;10.15;1.20;;;;;;;7.02;88.32;100767.02;1660028;85;20902;-42
2022/05/17 02:59:01;;;;;;;13.55;1.30;;;;;;;7.05;88.90;100760.58;1708848;84;20932;-42
2022/05/17 03:01:27;;;;;;;8.23;1.10;;;;;;;7.09;89.30;100766.16;1701833;84;20912;-42
2022/05/17 03:03:55;;;;;;;4.75;1.00;;;;;;;7.11;89.66;100763.16;1690846;83;21866;-42
2022/05/17 03:06:22;;;;;;;4.92;1.02;;;;;;;7.16;90.17;100758.02;1701730;84;20912;-42
2022/05/17 03:08:50;;;;;;;5.58;1.25;;;;;;;7.23;90.85;100761.46;1680665;84;20900;-42
2022/05/17 03:11:17;;;;;;;7.58;1.02;;;;;;;7.29;91.36;100761.45;1701343;84;20964;-42
2022/05/17 03:13:43;;;;;;;4.25;1.10;;;;;;;7.40;91.98;100762.74;1708465;82;20939;-42
2022/05/17 03:16:10;;;;;;;4.47;1.10;;;;;;;7.53;92.32;100755.42;1701272;84;21140;-42
2022/05/17 03:18:39;;;;;;;1.02;0.85;;;;;;;7.67;91.93;100761.84;1708623;82;20936;-42
2022/05/17 03:21:06;;;;;;;4.33;1.10;;;;;;;7.84;91.35;100755.39;1701258;84;21007;-42
2022/05/17 03:23:34;;;;;;;5.08;1.10;;;;;;;8.02;89.69;100759.63;1708438;82;20916;-42
2022/05/17 03:26:01;;;;;;;3.15;1.00;;;;;;;8.20;87.68;100754.84;1673346;84;20994;-42
2022/05/17 03:28:28;;;;;;;1.52;1.12;;;;;;;8.38;85.99;100747.02;1708286;84;21113;-42
2022/05/17 03:30:56;;;;;;;5.40;0.95;;;;;;;8.54;84.96;100750.00;1701157;84;20972;-41
2022/05/17 03:33:22;;;;;;;7.53;1.25;;;;;;;8.68;83.55;100745.17;1708276;82;21028;-42
2022/05/17 03:35:49;;;;;;;5.75;0.90;;;;;;;8.79;82.24;100751.15;1701160;84;20888;-42
2022/05/17 03:38:16;;;;;;;4.90;1.10;;;;;;;8.91;80.94;100751.05;1708371;82;20940;-42
2022/05/17 03:40:42;;;;;;;1.75;1.00;;;;;;;9.06;79.33;100750.08;1701147;84;21617;-42
2022/05/17 03:43:09;;;;;;;6.30;0.88;;;;;;;9.25;78.15;100755.56;1680251;84;20983;-42
2022/05/17 03:45:36;;;;;;;9.38;1.00;;;;;;;9.41;76.58;100756.29;1701217;84;20893;-42
2022/05/17 03:48:04;;;;;;;4.15;1.10;;;;;;;9.61;76.15;100759.55;1708353;84;20980;-43
2022/05/17 03:50:31;;;;;;;2.15;1.00;;;;;;;9.89;75.81;100755.81;1701421;84;20936;-42
2022/05/17 03:53:01;;;;;;;5.95;1.10;;;;;;;10.29;75.10;100752.77;1708458;84;21195;-43
2022/05/17 03:55:28;;;;;;;2.35;1.30;;;;;;;10.72;72.06;100753.95;1701205;84;20996;-42
2022/05/17 03:57:55;;;;;;;2.47;1.12;;;;;;;11.17;69.61;100752.44;1701328;83;21003;-43
2022/05/17 04:00:23;;;;;;;7.97;1.77;;;;;;;11.56;66.57;100750.48;1696127;84;21585;-43
2022/05/17 04:02:49;;;;;;;4.65;1.60;;;;;;;11.90;62.97;100750.72;1666217;84;20975;-43
2022/05/17 04:05:17;;;;;;;3.20;1.90;;;;;;;12.21;61.66;100740.19;1695944;84;21148;-42
2022/05/17 04:07:46;;;;;;;5.28;1.50;;;;;;;12.48;60.40;100736.16;1695774;84;20916;-43
2022/05/17 04:10:15;;;;;;;3.65;1.90;;;;;;;12.75;57.89;100736.85;1696008;84;20964;-43
2022/05/17 04:12:42;;;;;;;4.25;2.20;;;;;;;12.96;57.36;100734.65;1695835;84;20896;-43
2022/05/17 04:15:13;;;;;;;10.00;1.98;;;;;;;13.07;58.12;100736.56;1695952;83;20924;-43
2022/05/17 04:17:39;;;;;;;5.05;1.98;;;;;;;13.19;56.14;100736.23;1696248;84;21466;-43
2022/05/17 04:20:11;;;;;;;4.67;2.10;;;;;;;13.31;57.01;100738.14;1696103;84;21447;-43
2022/05/17 04:22:46;;;;;;;7.78;1.90;;;;;;;13.49;57.60;100736.38;1666998;84;20929;-43
2022/05/17 04:25:15;;;;;;;1.90;1.62;;;;;;;13.73;56.06;100737.08;1695324;83;20968;-41
2022/05/17 04:27:43;;;;;;;7.92;1.92;;;;;;;13.93;53.87;100734.80;1695934;83;21008;-41
2022/05/17 04:30:11;;;;;;;19.25;1.37;;;;;;;14.14;53.96;100739.42;1695977;84;21252;-41
2022/05/17 04:32:39;;;;;;;4.85;1.00;;;;;;;14.27;51.99;100733.41;1696039;84;20913;-41
2022/05/17 04:35:07;;;;;;;4.22;1.00;;;;;;;14.30;52.87;100738.09;1695958;84;20980;-41
2022/05/17 04:37:36;;;;;;;4.42;0.98;;;;;;;14.26;51.46;100739.05;1696095;84;20936;-41
2022/05/17 04:40:11;;;;;;;1.05;0.80;;;;;;;14.22;51.79;100744.81;1696092;84;20912;-42
2022/05/17 04:42:39;;;;;;;4.05;0.70;;;;;;;14.14;52.35;100743.33;1696217;84;21273;-43
2022/05/17 04:45:08;;;;;;;2.25;0.70;;;;;;;14.10;51.63;100745.16;1695732;83;20924;-43
2022/05/17 04:47:36;;;;;;;1.20;0.68;;;;;;;14.16;52.30;100738.49;1665994;84;21672;-43
2022/05/17 04:50:04;;;;;;;10.30;1.00;;;;;;;14.18;51.79;100734.53;1666432;84;20988;-43
2022/05/17 04:52:31;;;;;;;6.67;0.98;;;;;;;14.15;53.33;100743.30;1666295;84;21507;-42
2022/05/17 04:54:57;;;;;;;10.78;1.00;;;;;;;14.19;52.22;100736.23;1696033;84;21113;-43
2022/05/17 04:57:24;;;;;;;1.00;0.90;;;;;;;14.29;51.67;100729.01;1699048;83;20991;-43
2022/05/17 04:59:50;;;;;;;1.35;0.75;;;;;;;14.35;50.59;100728.81;1710966;82;21022;-43
2022/05/17 05:02:18;;;;;;;7.53;0.75;;;;;;;14.42;48.77;100725.59;1701454;84;21519;-43
2022/05/17 05:04:44;;;;;;;2.95;0.80;;;;;;;14.60;49.98;100730.67;1711184;83;21011;-43
2022/05/17 05:07:11;;;;;;;6.22;1.15;;;;;;;14.85;50.16;100715.17;1701371;84;21049;-43
2022/05/17 05:09:37;;;;;;;12.47;1.00;;;;;;;15.08;50.55;100718.78;1711112;83;20944;-43
2022/05/17 05:12:06;;;;;;;4.12;0.80;;;;;;;15.36;49.26;100720.46;1701438;84;20976;-43
2022/05/17 05:14:33;;;;;;;1.87;0.90;;;;;;;15.63;48.58;100712.58;1710991;83;21357;-43
2022/05/17 05:16:59;;;;;;;12.37;1.10;;;;;;;15.88;46.58;100711.25;1701478;84;20964;-43
2022/05/17 05:19:26;;;;;;;4.35;1.35;;;;;;;15.98;46.95;100711.77;1711245;83;21139;-43
2022/05/17 05:21:54;;;;;;;3.47;0.57;;;;;;;16.14;45.53;100705.98;1701286;84;21071;-43
2022/05/17 05:24:22;;;;;;;8.98;1.30;;;;;;;16.08;44.73;100704.01;1711310;83;21576;-43
2022/05/17 05:26:49;;;;;;;1.57;0.65;;;;;;;16.08;42.93;100710.53;1701508;84;21506;-43
2022/05/17 05:29:16;;;;;;;5.08;0.78;;;;;;;16.16;44.72;100711.53;1711075;83;20953;-43
2022/05/17 05:31:42;;;;;;;5.03;0.70;;;;;;;16.27;45.15;100709.81;1701405;83;21186;-43
2022/05/17 05:34:10;;;;;;;2.77;0.98;;;;;;;16.45;45.17;100708.72;1711054;83;20939;-43
2022/05/17 05:36:37;;;;;;;15.78;0.90;;;;;;;16.60;45.14;100691.58;1701560;84;21574;-43
2022/05/17 05:39:03;;;;;;;4.70;0.80;;;;;;;16.75;43.76;100690.98;1711017;83;20999;-43
2022/05/17 05:41:31;;;;;;;8.13;1.17;;;;;;;16.73;43.07;100694.55;1701547;84;21739;-43
2022/05/17 05:43:58;;;;;;;10.28;0.78;;;;;;;16.73;43.21;100693.25;1711135;83;21932;-43
2022/05/17 05:46:24;;;;;;;3.08;0.80;;;;;;;16.75;41.66;100696.20;1701382;84;20955;-43
2022/05/17 05:48:51;;;;;;;4.15;0.98;;;;;;;16.73;42.30;100698.03;1711172;83;20975;-43
2022/05/17 05:51:18;;;;;;;3.27;0.68;;;;;;;16.79;41.38;100694.30;1701366;84;21032;-43
2022/05/17 05:53:45;;;;;;;2.90;0.60;;;;;;;16.70;40.85;100697.30;1711227;83;21050;-43
2022/05/17 05:56:12;;;;;;;5.97;0.70;;;;;;;16.59;38.76;100689.44;1701337;84;20933;-43
2022/05/17 05:58:42;;;;;;;8.68;0.78;;;;;;;16.43;39.93;100690.95;1720836;83;20947;-43
2022/05/17 06:01:09;;;;;;;1.75;0.65;;;;;;;16.48;39.86;100692.48;1692780;84;20904;-43
2022/05/17 06:03:35;;;;;;;5.20;0.62;;;;;;;16.68;39.30;100699.98;1692806;84;21500;-43
2022/05/17 06:06:03;;;;;;;1.50;0.75;;;;;;;16.81;38.78;100695.95;1721518;83;20888;-43
2022/05/17 06:08:30;;;;;;;4.40;0.80;;;;;;;16.82;39.00;100691.59;1721564;83;21938;-43
2022/05/17 06:10:58;;;;;;;4.55;0.68;;;;;;;16.81;39.41;100687.27;1692613;84;20988;-43
2022/05/17 06:13:26;;;;;;;1.22;0.72;;;;;;;16.84;38.82;100687.14;1692758;84;21003;-44
2022/05/17 06:15:52;;;;;;;1.72;0.60;;;;;;;16.74;37.93;100683.19;1721418;83;20990;-43
2022/05/17 06:18:19;;;;;;;3.52;0.70;;;;;;;16.64;37.57;100678.34;1721699;83;21027;-43
2022/05/17 06:20:53;;;;;;;0.93;0.70;;;;;;;16.61;38.33;100680.22;1692757;83;21790;-43
2022/05/17 06:23:20;;;;;;;1.70;0.80;;;;;;;16.64;36.15;100686.62;1692689;84;20936;-43
2022/05/17 06:25:47;;;;;;;3.65;0.80;;;;;;;16.51;36.34;100685.82;1692616;84;20986;-43
2022/05/17 06:28:14;;;;;;;2.15;0.55;;;;;;;16.53;36.64;100684.44;1692598;84;20990;-43
2022/05/17 06:30:41;;;;;;;1.75;0.95;;;;;;;16.57;36.88;100686.48;1721523;83;20936;-43
2022/05/17 06:33:09;;;;;;;5.42;0.82;;;;;;;16.55;35.72;100681.33;1721747;83;21976;-43
2022/05/17 06:35:39;;;;;;;1.85;0.85;;;;;;;16.46;35.54;100696.05;1692646;84;20907;-43
2022/05/17 06:38:06;;;;;;;2.92;0.88;;;;;;;16.31;37.46;100694.45;1692363;84;20920;-43
2022/05/17 06:40:33;;;;;;;4.47;0.70;;;;;;;16.41;36.15;100675.32;1692572;84;21029;-43
2022/05/17 06:43:00;;;;;;;3.47;0.70;;;;;;;16.42;36.42;100692.73;1691280;84;20999;-42
2022/05/17 06:45:28;;;;;;;1.35;0.60;;;;;;;16.47;36.24;100692.09;1721886;83;21139;-43
2022/05/17 06:47:55;;;;;;;1.30;0.60;;;;;;;16.52;36.67;100695.36;1692673;84;20962;-43
2022/05/17 06:50:22;;;;;;;1.92;1.02;;;;;;;16.60;35.90;100692.45;1693009;84;21533;-43
2022/05/17 06:52:50;;;;;;;3.92;0.70;;;;;;;16.70;35.28;100695.98;1721787;83;20991;-44
2022/05/17 06:55:17;;;;;;;1.42;0.42;;;;;;;16.80;36.42;100696.03;1721704;83;20943;-43
2022/05/17 06:57:44;;;;;;;3.52;0.50;;;;;;;16.82;33.96;100695.50;1692528;84;21290;-43
2022/05/17 07:00:12;;;;;;;2.35;0.60;;;;;;;16.97;36.27;100696.64;1692810;84;20891;-43
2022/05/17 07:02:40;;;;;;;3.40;0.50;;;;;;;17.29;33.93;100698.37;1691203;84;21494;-43
2022/05/17 07:05:09;;;;;;;0.75;0.30;;;;;;;17.35;34.41;100690.73;1721716;83;21049;-43
2022/05/17 07:07:37;;;;;;;2.60;0.60;;;;;;;17.36;33.86;100694.57;1692745;84;20987;-43
2022/05/17 07:13:13;;;;;;;7.40;0.95;;;;;;;17.37;33.57;100680.57;1692773;84;21564;-44
2022/05/17 07:15:46;;;;;;;2.83;0.47;;;;;;;17.37;32.79;100694.13;1671506;84;20912;-43
2022/05/17 07:18:15;;;;;;;2.72;0.60;;;;;;;17.44;32.49;100684.25;1692715;84;21463;-44
2022/05/17 07:20:43;;;;;;;2.55;0.40;;;;;;;17.42;32.75;100687.36;1721674;82;20895;-44
2022/05/17 07:23:11;;;;;;;4.53;0.70;;;;;;;17.35;31.92;100678.96;1721775;83;21166;-43
2022/05/17 07:25:40;;;;;;;0.98;0.50;;;;;;;17.23;31.90;100676.41;1692924;84;20935;-44
2022/05/17 07:28:09;;;;;;;2.12;0.60;;;;;;;17.22;32.54;100684.70;1692717;84;21485;-43
2022/05/17 07:30:36;;;;;;;2.80;0.55;;;;;;;17.29;31.24;100674.83;1721516;83;20916;-43
2022/05/17 07:33:03;;;;;;;2.52;0.75;;;;;;;17.44;34.05;100671.17;1721889;83;21521;-43
2022/05/17 07:35:30;;;;;;;4.75;0.60;;;;;;;17.80;33.81;100667.34;1692800;84;21155;-42
2022/05/17 07:37:57;;;;;;;5.53;0.60;;;;;;;18.01;32.83;100659.45;1692698;84;20964;-44
2022/05/17 07:40:24;;;;;;;2.77;0.50;;;;;;;18.04;31.87;100670.27;1692932;84;20955;-43
2022/05/17 07:42:52;;;;;;;0.93;0.45;;;;;;;18.01;31.33;100663.83;1692817;83;20991;-44
2022/05/17 07:45:19;;;;;;;2.85;0.40;;;;;;;17.93;31.42;100661.56;1721589;83;21038;-43
2022/05/17 07:47:46;;;;;;;0.68;0.50;;;;;;;17.91;31.12;100662.92;1721615;83;21017;-43
2022/05/17 07:50:13;;;;;;;4.53;0.60;;;;;;;17.98;30.39;100664.81;1692834;84;21489;-44
2022/05/17 07:52:41;;;;;;;2.25;0.60;;;;;;;17.94;32.29;100664.56;1692851;84;20994;-44
2022/05/17 07:55:10;;;;;;;3.40;0.62;;;;;;;17.98;32.32;100656.95;1721826;83;20919;-43
2022/05/17 07:57:38;;;;;;;0.60;0.60;;;;;;;18.19;31.48;100651.66;1691817;84;20987;-44
2022/05/17 08:00:08;;;;;;;0.60;0.30;;;;;;;18.15;30.36;100655.36;1695886;83;21212;-44
2022/05/17 08:02:42;;;;;;;0.82;0.40;;;;;;;17.97;31.13;100647.40;1695862;83;20937;-44
2022/05/17 08:05:10;;;;;;;2.70;0.50;;;;;;;18.02;32.62;100640.20;1696152;84;21572;-43
2022/05/17 08:07:38;;;;;;;2.00;0.50;;;;;;;18.23;30.60;100639.67;1695841;84;20933;-44
2022/05/17 08:10:06;;;;;;;3.62;0.42;;;;;;;18.25;32.42;100631.72;1696438;84;20976;-44
2022/05/17 08:12:35;;;;;;;0.65;0.40;;;;;;;18.34;31.43;100635.23;1696083;83;21035;-44
2022/05/17 08:15:02;;;;;;;2.05;0.50;;;;;;;18.35;31.66;100633.44;1695908;84;20960;-44
2022/05/17 08:17:29;;;;;;;0.65;0.30;;;;;;;18.33;31.89;100634.84;1695923;84;20973;-44
2022/05/17 08:19:55;;;;;;;3.98;0.40;;;;;;;18.42;31.36;100628.75;1696057;84;21012;-44
2022/05/17 08:22:21;;;;;;;4.25;0.50;;;;;;;18.38;30.88;100624.11;1696135;83;20909;-44
2022/05/17 08:27:42;;;;;;;5.83;0.60;;;;;;;18.18;30.98;100631.16;1696164;83;21597;-44
2022/05/17 08:30:15;;;;;;;0.75;0.45;;;;;;;18.10;31.22;100634.61;1694543;84;20949;-43
2022/05/17 08:35:56;;;;;;;1.55;0.47;;;;;;;17.98;30.96;100628.62;1695952;84;21371;-44
2022/05/17 08:38:40;;;;;;;6.75;0.53;;;;;;;18.10;30.91;100629.38;1695904;84;21988;-44
2022/05/17 08:41:25;;;;;;;2.85;0.42;;;;;;;18.15;30.43;100626.06;1695903;84;20956;-44
2022/05/17 08:43:57;;;;;;;1.90;0.50;;;;;;;18.14;31.91;100620.44;1695949;84;21088;-44
2022/05/17 08:47:05;;;;;;;4.67;0.72;;;;;;;18.34;31.90;100613.41;1695787;84;20972;-43
2022/05/17 08:49:56;;;;;;;6.65;0.42;;;;;;;18.39;31.77;100614.02;1695913;83;21060;-43
2022/05/17 08:52:25;;;;;;;0.72;0.50;;;;;;;18.41;31.04;100610.03;1690972;84;21767;-44
2022/05/17 08:55:27;;;;;;;5.50;0.70;;;;;;;18.42;31.62;100596.00;1695858;83;20961;-44
2022/05/17 08:58:22;;;;;;;4.97;0.50;;;;;;;18.61;32.20;100598.10;1697100;83;20971;-43
2022/05/17 09:00:54;;;;;;;4.83;0.70;;;;;;;18.70;30.68;100598.11;1710983;82;20951;-43
2022/05/17 09:03:50;;;;;;;2.58;0.47;;;;;;;18.60;30.52;100596.41;1701465;84;21063;-43
2022/05/17 09:06:32;;;;;;;2.08;0.50;;;;;;;18.59;31.50;100586.84;1710825;83;21269;-43
2022/05/17 09:09:34;;;;;;;8.58;0.80;;;;;;;18.88;31.64;100579.27;1701406;84;20876;-42
2022/05/17 09:12:09;;;;;;;2.70;0.40;;;;;;;19.25;28.65;100573.91;1710086;82;21000;-43
2022/05/17 09:14:40;;;;;;;9.08;0.62;;;;;;;19.15;28.66;100590.60;1701329;84;21031;-43
2022/05/17 09:17:13;;;;;;;1.92;0.40;;;;;;;19.21;28.63;100581.09;1710944;83;21494;-43
2022/05/17 09:19:40;;;;;;;1.15;0.60;;;;;;;19.29;27.81;100587.25;1701360;84;21189;-43
2022/05/17 09:22:07;;;;;;;0.68;0.50;;;;;;;19.03;28.62;100585.53;1711010;82;21003;-43
2022/05/17 09:24:42;;;;;;;4.33;0.78;;;;;;;18.92;28.25;100593.92;1701327;84;21530;-43
2022/05/17 09:27:11;;;;;;;;;;;;;;;18.98;29.61;100598.05;1687263;83;20928;-43
2022/05/17 09:29:44;;;;;;;7.70;0.65;;;;;;;19.02;28.08;100589.53;1711164;83;20073;-43
2022/05/17 09:32:13;;;;;;;7.70;0.65;;;;;;;19.01;28.49;100579.97;1682228;85;21300;-43
2022/05/17 09:34:45;;;;;;;3.33;0.80;;;;;;;18.95;27.16;100583.27;1711069;83;20860;-43
2022/05/17 09:37:16;;;;;;;1.98;0.57;;;;;;;18.55;29.30;100601.00;1711035;83;21419;-43
2022/05/17 09:39:46;;;;;;;4.70;0.60;;;;;;;18.33;28.96;100579.81;1701301;84;20924;-43
2022/05/17 09:42:21;;;;;;;6.40;0.65;;;;;;;18.34;27.92;100580.65;1711085;82;21018;-43
2022/05/17 09:44:52;;;;;;;1.52;0.70;;;;;;;18.42;27.33;100576.34;1682490;85;22129;-43
2022/05/17 09:47:30;;;;;;;1.57;0.60;;;;;;;18.57;29.70;100559.87;1711100;83;20955;-43
2022/05/17 09:53:10;;;;;;;7.37;0.70;;;;;;;19.16;29.13;100573.93;1711124;83;20924;-43
2022/05/17 09:55:40;;;;;;;9.78;0.88;;;;;;;19.23;29.05;100571.36;1677042;84;21019;-43
2022/05/17 09:58:12;;;;;;;4.60;0.75;;;;;;;19.21;29.34;100564.03;1709150;83;21170;-43
2022/05/17 10:00:50;;;;;;;0.75;0.50;;;;;;;19.27;30.06;100575.13;1695699;83;20921;-43
2022/05/17 10:03:34;;;;;;;12.73;0.88;;;;;;;19.24;28.65;100553.38;1695943;84;21490;-43
2022/05/17 10:06:05;;;;;;;7.15;0.70;;;;;;;19.26;29.19;100551.99;1667388;84;20936;-43
2022/05/17 10:08:45;;;;;;;13.58;0.80;;;;;;;19.15;29.16;100559.13;1695925;84;21509;-42
2022/05/17 10:11:21;;;;;;;3.90;0.60;;;;;;;18.98;28.96;100558.70;1695962;84;21531;-43
2022/05/17 10:14:15;;;;;;;15.72;1.07;;;;;;;19.04;28.12;100554.44;1695977;83;20942;-43
2022/05/17 10:17:04;;;;;;;5.90;0.62;;;;;;;19.03;27.96;100551.43;1696018;84;21509;-43
2022/05/17 10:19:48;;;;;;;8.40;0.75;;;;;;;19.19;28.47;100547.98;1694801;84;20893;-43
2022/05/17 10:23:02;;;;;;;7.92;0.65;;;;;;;19.44;26.19;100547.52;1696055;84;20948;-44
2022/05/17 10:25:51;;;;;;;10.80;0.98;;;;;;;19.57;25.91;100550.77;1639116;87;21046;-44
2022/05/17 10:28:41;;;;;;;4.65;0.70;;;;;;;19.66;27.10;100541.09;1690138;84;20952;-44
2022/05/17 10:31:36;;;;;;;4.72;0.88;;;;;;;19.53;26.08;100539.13;1696164;84;21610;-44
2022/05/17 10:34:20;;;;;;;8.63;0.60;;;;;;;19.44;25.69;100534.40;1696061;83;21027;-44
2022/05/17 10:36:50;;;;;;;13.48;0.88;;;;;;;19.48;26.56;100537.72;1694661;84;20917;-44
2022/05/17 10:39:38;;;;;;;13.10;1.20;;;;;;;19.48;27.65;100542.48;1695820;84;21822;-44
2022/05/17 10:42:05;;;;;;;9.13;0.50;;;;;;;19.50;27.21;100530.59;1695907;84;21526;-44
2022/05/17 10:44:41;;;;;;;3.10;0.60;;;;;;;19.56;26.96;100525.45;1696046;84;21466;-45
2022/05/17 10:47:51;;;;;;;4.47;0.87;;;;;;;19.63;27.77;100529.45;1695272;84;21059;-44
2022/05/17 10:50:37;;;;;;;1.35;0.60;;;;;;;19.82;27.14;100526.16;1696070;83;21030;-44
2022/05/17 10:53:19;;;;;;;3.70;0.80;;;;;;;19.71;27.85;100519.37;1696025;83;21541;-44
2022/05/17 10:56:09;;;;;;;2.62;0.70;;;;;;;19.80;28.23;100525.41;1695943;84;20908;-45
2022/05/17 10:59:06;;;;;;;1.37;0.82;;;;;;;19.92;26.66;100519.13;1695741;83;21565;-44
2022/05/17 11:02:06;;;;;;;2.85;0.50;;;;;;;19.75;28.27;100522.20;1695904;83;21811;-44
2022/05/17 11:05:22;;;;;;;12.40;1.30;;;;;;;20.16;26.93;100517.34;1696008;84;20905;-45
2022/05/17 11:08:00;;;;;;;5.70;0.60;;;;;;;20.38;26.24;100515.61;1696062;84;21241;-45
2022/05/17 11:11:24;;;;;;;13.48;1.40;;;;;;;20.23;27.25;100520.84;1695947;83;20964;-45
2022/05/17 11:14:05;;;;;;;2.05;0.70;;;;;;;20.27;26.88;100513.61;1696048;84;21016;-45
2022/05/17 11:16:55;;;;;;;4.22;0.90;;;;;;;20.14;27.62;100516.59;1695792;84;20980;-44
2022/05/17 11:19:52;;;;;;;4.90;0.80;;;;;;;20.22;27.06;100513.04;1695888;84;20944;-44
2022/05/17 11:22:39;;;;;;;8.68;1.00;;;;;;;20.24;29.03;100503.28;1696008;84;22669;-44
2022/05/17 11:25:36;;;;;;;1.10;0.90;;;;;;;20.28;29.01;100504.79;1695908;84;21028;-44
2022/05/17 11:28:18;;;;;;;1.80;0.70;;;;;;;20.30;28.39;100490.26;1695993;83;21585;-44
2022/05/17 11:31:17;;;;;;;2.87;0.62;;;;;;;20.41;27.50;100485.69;1696008;84;21440;-44
2022/05/17 11:33:44;;;;;;;40.25;4.45;;;;;;;20.33;27.38;100491.39;1696088;84;21082;-44
2022/05/17 11:36:35;;;;;;;9.40;0.80;;;;;;;20.35;26.99;100473.29;1695968;84;21318;-45
2022/05/17 11:39:01;;;;;;;1.17;1.07;;;;;;;20.23;26.94;100465.66;1695941;83;20917;-45
2022/05/17 11:41:42;;;;;;;2.85;0.70;;;;;;;20.21;27.87;100487.24;1696010;83;20960;-44
2022/05/17 11:44:26;;;;;;;3.30;0.90;;;;;;;20.39;28.07;100482.67;1695890;84;21550;-44
2022/05/17 11:46:58;;;;;;;2.13;0.80;;;;;;;20.43;26.64;100471.98;1688444;84;20916;-45
2022/05/17 11:49:28;;;;;;;2.40;0.62;;;;;;;20.31;28.67;100480.95;1695836;83;22021;-44
2022/05/17 11:52:04;;;;;;;6.60;0.90;;;;;;;20.27;27.61;100467.62;1695805;84;21003;-45
2022/05/17 11:54:44;;;;;;;1.60;0.70;;;;;;;20.33;27.88;100461.98;1695968;84;20917;-45
2022/05/17 11:57:27;;;;;;;2.72;0.70;;;;;;;20.41;27.42;100459.40;1695880;84;20969;-44
2022/05/17 12:00:04;;;;;;;2.33;1.00;;;;;;;20.50;28.63;100451.80;1696057;84;21592;-45
2022/05/17 12:02:52;;;;;;;0.88;0.55;;;;;;;20.62;28.22;100453.30;1695451;83;20987;-45
2022/05/17 12:05:47;;;;;;;1.27;0.40;;;;;;;20.72;27.22;100445.70;1711078;83;21106;-45
2022/05/17 12:08:31;;;;;;;4.65;0.80;;;;;;;20.72;27.18;100453.14;1682589;85;20994;-43
2022/05/17 12:11:21;;;;;;;7.15;1.30;;;;;;;20.57;27.04;100450.11;1711049;83;21471;-43